Time;durP1;ratioP1;P1;durP2;ratioP2;P2;SDS_P1;SDS_P2;PMS_P1;PMS_P2;Temp;Humidity;BMP_temperature;BMP_pressure;BME280_temperature;BME280_humidity;BME280_pressure;Samples;Min_cycle;Max_cycle;Signal;HPM_P1;HPM_P2
2021/09/25 00:16:01;;;;;;;32.28;17.02;;;10.40;99.90;;;;;;6123305;23;20009;-92
2021/09/25 00:24:16;;;;;;;;;;;;;;;;;;;;;
2021/09/25 00:36:38;;;;;;;21.02;13.77;;;10.40;99.90;;;;;;5816586;24;20063;-91
2021/09/25 01:13:37;;;;;;;;;;;;;;;;;;;;;
2021/09/25 01:21:31;;;;;;;18.13;13.70;;;9.70;99.90;;;;;;5977608;24;20302;-91
2021/09/25 01:24:23;;;;;;;24.40;14.50;;;9.70;99.90;;;;;;6024594;23;20027;-92
2021/09/25 01:31:47;;;;;;;18.20;13.15;;;9.60;99.90;;;;;;6121054;23;20018;-91
2021/09/25 01:39:05;;;;;;;16.92;12.68;;;9.70;99.90;;;;;;6057597;23;20037;-91
2021/09/25 01:42:45;;;;;;;17.95;12.95;;;9.80;99.90;;;;;;6122585;23;20040;-91
2021/09/25 01:45:47;;;;;;;17.90;12.75;;;10.00;99.90;;;;;;6121515;23;20037;-91
2021/09/25 01:48:42;;;;;;;18.20;13.15;;;10.10;99.90;;;;;;6102687;23;20074;-91
2021/09/25 01:51:36;;;;;;;19.15;12.52;;;10.20;99.90;;;;;;6122911;23;20302;-91
2021/09/25 01:54:23;;;;;;;;;;;10.30;99.90;;;;;;6126035;23;20034;-91
2021/09/25 01:57:32;;;;;;;15.43;10.80;;;10.30;99.90;;;;;;6118888;23;19952;-90
2021/09/25 02:08:46;;;;;;;13.57;11.07;;;10.40;99.90;;;;;;6035905;23;20087;-91
2021/09/25 02:12:29;;;;;;;15.52;10.80;;;10.30;99.90;;;;;;6015251;23;20123;-93
2021/09/25 02:24:53;;;;;;;;;;;;;;;;;;;;;
2021/09/25 02:53:14;;;;;;;;;;;;;;;;;;;;;
2021/09/25 02:56:14;;;;;;;17.35;12.10;;;9.30;99.90;;;;;;5862367;24;20240;-90
2021/09/25 02:59:39;;;;;;;18.30;12.77;;;9.30;99.90;;;;;;5967523;23;20039;-91
2021/09/25 03:11:47;;;;;;;21.25;13.57;;;9.20;99.90;;;;;;5869767;24;20085;-93
2021/09/25 03:15:26;;;;;;;21.60;14.50;;;9.00;99.90;;;;;;5906850;24;20029;-93
2021/09/25 03:19:23;;;;;;;;;;;;;;;;;;;;;
2021/09/25 03:22:44;;;;;;;21.00;14.20;;;8.80;99.90;;;;;;5766551;24;20107;-94
2021/09/25 03:25:48;;;;;;;23.08;14.40;;;8.70;99.90;;;;;;5797209;24;20024;-93
2021/09/25 03:28:49;;;;;;;24.17;15.48;;;8.80;99.90;;;;;;5953225;24;20032;-93
2021/09/25 03:35:49;;;;;;;23.45;15.82;;;8.70;99.90;;;;;;5953923;24;20069;-94
2021/09/25 03:39:23;;;;;;;22.45;15.57;;;8.50;99.90;;;;;;5953864;24;20389;-91
2021/09/25 03:42:42;;;;;;;22.80;15.38;;;8.40;99.90;;;;;;5964329;24;20032;-93
2021/09/25 03:46:25;;;;;;;;;;;;;;;;;;;;;
2021/09/25 03:50:07;;;;;;;;;;;;;;;;;;;;;
2021/09/25 03:53:34;;;;;;;27.30;16.92;;;8.10;99.90;;;;;;6012279;23;20383;-93
2021/09/25 03:56:53;;;;;;;25.50;14.68;;;8.20;99.90;;;;;;6155544;23;20126;-91
2021/09/25 04:00:29;;;;;;;27.20;16.30;;;8.10;99.90;;;;;;6140079;23;20156;-92
2021/09/25 04:08:25;;;;;;;25.67;15.38;;;8.20;99.90;;;;;;5982510;24;20016;-91
2021/09/25 04:11:38;;;;;;;26.05;16.55;;;8.10;99.90;;;;;;5981727;24;20032;-92
2021/09/25 04:14:48;;;;;;;29.85;16.25;;;8.10;99.90;;;;;;6017673;23;20087;-92
2021/09/25 04:17:38;;;;;;;24.27;16.02;;;8.10;99.90;;;;;;6073913;23;20056;-92
2021/09/25 04:20:25;;;;;;;27.50;18.50;;;8.20;99.90;;;;;;6153945;23;20022;-91
2021/09/25 04:23:13;;;;;;;29.02;17.30;;;8.40;99.90;;;;;;6152243;23;20017;-92
2021/09/25 04:26:01;;;;;;;24.50;16.85;;;8.40;99.90;;;;;;6152481;23;20069;-91
2021/09/25 04:28:57;;;;;;;30.25;18.15;;;8.50;99.90;;;;;;6152709;23;20036;-91
2021/09/25 04:36:16;;;;;;;24.35;16.88;;;8.60;99.90;;;;;;6077778;23;20022;-92
2021/09/25 04:39:03;;;;;;;28.55;18.27;;;8.60;99.90;;;;;;6066877;23;20023;-92
2021/09/25 04:41:53;;;;;;;26.75;17.08;;;8.80;99.90;;;;;;6143009;23;20021;-91
2021/09/25 04:44:41;;;;;;;24.55;15.60;;;8.90;99.90;;;;;;6203575;23;20020;-92
2021/09/25 04:51:41;;;;;;;24.60;15.27;;;9.00;99.90;;;;;;6228794;23;20034;-93
2021/09/25 04:54:56;;;;;;;22.88;13.95;;;8.90;99.90;;;;;;6227875;23;20024;-92
2021/09/25 04:59:04;;;;;;;;;;;;;;;;;;;;;
2021/09/25 05:02:08;;;;;;;18.90;13.05;;;8.80;99.90;;;;;;6091915;23;20062;-92
2021/09/25 05:05:19;;;;;;;19.23;13.15;;;8.70;99.90;;;;;;6141652;23;20030;-91
2021/09/25 05:08:18;;;;;;;20.98;13.30;;;9.00;99.90;;;;;;6202051;22;20024;-91
2021/09/25 05:11:07;;;;;;;20.17;13.35;;;9.20;99.90;;;;;;6224596;23;20074;-91
2021/09/25 05:14:33;;;;;;;;;;;;;;;;;;;;;
2021/09/25 05:17:50;;;;;;;16.88;12.23;;;9.30;99.90;;;;;;6149164;23;20449;-93
2021/09/25 05:21:33;;;;;;;19.45;12.68;;;9.30;99.90;;;;;;6119275;23;20038;-92
2021/09/25 05:24:21;;;;;;;16.05;11.82;;;9.20;99.90;;;;;;6153537;23;20179;-92
2021/09/25 05:27:10;;;;;;;19.52;12.73;;;9.10;99.90;;;;;;6131069;23;20037;-89
2021/09/25 05:29:57;;;;;;;14.20;11.70;;;8.90;99.90;;;;;;6129570;23;20041;-90
2021/09/25 05:32:47;;;;;;;17.13;11.82;;;8.90;99.90;;;;;;6150838;23;20056;-88
2021/09/25 05:35:35;;;;;;;16.50;11.55;;;8.80;99.90;;;;;;6131956;23;20112;-88
2021/09/25 05:38:23;;;;;;;19.00;12.13;;;8.70;99.90;;;;;;6131274;23;20101;-88
2021/09/25 05:41:10;;;;;;;17.38;12.15;;;8.70;99.90;;;;;;6151081;23;20451;-87
2021/09/25 05:43:58;;;;;;;19.98;12.95;;;8.60;99.90;;;;;;6149635;23;20162;-87
2021/09/25 05:46:47;;;;;;;15.93;11.73;;;8.60;99.90;;;;;;6132024;23;20140;-87
2021/09/25 05:49:37;;;;;;;18.75;14.10;;;8.50;99.90;;;;;;6141853;23;20715;-92
2021/09/25 05:52:24;;;;;;;21.02;14.02;;;8.60;99.90;;;;;;6154629;23;20092;-94
2021/09/25 05:55:16;;;;;;;19.75;13.48;;;8.50;99.90;;;;;;6225640;22;20450;-93
2021/09/25 06:03:01;;;;;;;;;;;;;;;;;;;;;
2021/09/25 06:14:48;;;;;;;;;;;;;;;;;;;;;
2021/09/25 06:21:38;;;;;;;19.23;12.48;;;8.90;99.90;;;;;;5101300;27;20397;-93
2021/09/25 06:24:48;;;;;;;;;;;;;;;;;;;;;
2021/09/25 06:33:14;;;;;;;;;;;;;;;;;;;;;
2021/09/25 06:36:51;;;;;;;19.88;12.13;;;10.30;99.90;;;;;;5101917;27;20498;-93
2021/09/25 06:43:46;;;;;;;14.80;10.27;;;11.10;99.90;;;;;;5005996;28;20042;-93
2021/09/25 06:46:33;;;;;;;13.68;10.02;;;11.40;99.90;;;;;;5010616;28;20064;-92
2021/09/25 06:49:38;;;;;;;13.65;9.27;;;11.60;99.90;;;;;;4988158;28;20109;-92
2021/09/25 07:45:24;;;;;;;8.02;6.22;;;15.40;99.90;;;;;;6054652;23;20629;-92
2021/09/25 07:48:47;;;;;;;;;;;;;;;;;;;;;
2021/09/25 07:52:41;;;;;;;7.57;6.25;;;15.80;99.90;;;;;;6144807;23;20069;-93
2021/09/25 08:04:05;;;;;;;10.18;6.00;;;16.80;99.90;;;;;;6108046;23;20085;-94
2021/09/25 08:30:01;;;;;;;5.37;4.60;;;21.10;96.50;;;;;;6142385;22;1397711;-94
2021/09/25 08:32:48;;;;;;;6.05;4.45;;;23.80;76.60;;;;;;6147318;23;20059;-90
2021/09/25 08:35:36;;;;;;;4.97;3.50;;;24.20;72.60;;;;;;6144146;23;20025;-91
2021/09/25 08:38:28;;;;;;;4.60;3.88;;;24.60;74.70;;;;;;6164861;23;20026;-92
2021/09/25 08:41:32;;;;;;;4.38;3.78;;;26.10;66.00;;;;;;6120625;23;20025;-92
2021/09/25 08:44:28;;;;;;;4.80;4.38;;;26.70;65.10;;;;;;6168670;23;20294;-94
2021/09/25 08:52:01;;;;;;;;;;;;;;;;;;;;;
2021/09/25 08:55:58;;;;;;;7.07;4.13;;;26.70;59.80;;;;;;6084840;23;20046;-93
2021/09/25 09:02:19;;;;;;;5.22;4.72;;;26.50;60.60;;;;;;6164723;23;20036;-93
2021/09/25 09:05:27;;;;;;;9.32;4.40;;;26.60;62.30;;;;;;6142769;23;20055;-94
2021/09/25 09:08:15;;;;;;;7.10;4.35;;;27.10;60.00;;;;;;6169240;23;20021;-93
2021/09/25 09:11:04;;;;;;;7.75;4.07;;;27.40;58.90;;;;;;6162087;23;20030;-88
2021/09/25 09:13:54;;;;;;;8.45;4.15;;;27.50;59.60;;;;;;6163901;23;20029;-89
2021/09/25 09:16:56;;;;;;;6.72;3.75;;;27.70;57.30;;;;;;6163078;23;20125;-87
2021/09/25 09:19:43;;;;;;;4.30;3.70;;;27.60;57.80;;;;;;6160270;23;20036;-86
2021/09/25 09:22:33;;;;;;;5.47;3.47;;;28.00;57.10;;;;;;6167080;23;20071;-87
2021/09/25 09:25:20;;;;;;;4.25;3.50;;;28.00;57.70;;;;;;6160043;23;20080;-86
2021/09/25 09:28:21;;;;;;;3.47;3.17;;;28.90;56.60;;;;;;6161088;23;20446;-87
2021/09/25 09:31:09;;;;;;;4.43;3.50;;;29.40;54.20;;;;;;6155795;23;20185;-88
2021/09/25 09:33:59;;;;;;;5.35;3.70;;;30.00;54.00;;;;;;6155786;23;20029;-85
2021/09/25 09:36:46;;;;;;;4.85;3.25;;;29.60;53.90;;;;;;6113344;23;20029;-88
2021/09/25 09:39:35;;;;;;;4.95;3.17;;;30.40;50.50;;;;;;6156879;23;20405;-86
2021/09/25 09:42:23;;;;;;;3.63;3.33;;;30.20;52.00;;;;;;6150004;23;20069;-94
2021/09/25 09:45:11;;;;;;;6.78;3.30;;;30.10;49.80;;;;;;6164583;23;20021;-95
2021/09/25 09:48:00;;;;;;;4.05;3.30;;;30.20;50.40;;;;;;6162355;23;20080;-94
2021/09/25 09:50:50;;;;;;;4.18;3.33;;;31.10;48.00;;;;;;6149394;23;20392;-94
2021/09/25 09:53:43;;;;;;;3.40;3.10;;;31.00;49.70;;;;;;6143141;23;20037;-93
2021/09/25 09:56:30;;;;;;;3.47;2.80;;;31.10;48.60;;;;;;6166961;23;20097;-93
2021/09/25 09:59:18;;;;;;;3.38;2.92;;;31.50;47.00;;;;;;6165795;23;20080;-93
2021/09/25 10:02:07;;;;;;;3.78;2.85;;;31.90;46.10;;;;;;6203340;23;20025;-91
2021/09/25 10:05:03;;;;;;;3.80;3.10;;;31.70;46.20;;;;;;6202084;23;20036;-96
2021/09/25 10:07:51;;;;;;;3.30;3.00;;;31.10;47.40;;;;;;6195832;23;20033;-94
2021/09/25 10:10:42;;;;;;;3.72;2.80;;;31.10;48.10;;;;;;6192964;23;20388;-94
2021/09/25 10:13:34;;;;;;;3.60;3.20;;;31.20;48.70;;;;;;6197679;23;20056;-95
2021/09/25 10:29:27;;;;;;;3.40;3.10;;;32.20;46.90;;;;;;6243533;22;20042;-93
2021/09/25 10:37:18;;;;;;;3.67;3.38;;;31.90;48.10;;;;;;6165562;23;20045;-94
2021/09/25 11:02:12;;;;;;;3.85;2.95;;;33.60;43.70;;;;;;6076479;23;20011;-93
2021/09/25 11:05:58;;;;;;;4.05;3.03;;;33.70;42.40;;;;;;6082392;23;20106;-94
2021/09/25 11:08:54;;;;;;;4.65;2.60;;;32.90;46.40;;;;;;5986693;23;20017;-94
2021/09/25 11:12:01;;;;;;;5.55;3.00;;;33.30;46.70;;;;;;6061217;23;20022;-92
2021/09/25 11:14:57;;;;;;;3.00;2.72;;;33.50;45.00;;;;;;6170880;23;20029;-92
2021/09/25 11:39:45;;;;;;;2.38;2.17;;;35.00;39.00;;;;;;6138738;23;20016;-95
2021/09/25 11:42:48;;;;;;;3.75;2.28;;;34.30;39.00;;;;;;6115078;23;20022;-95
2021/09/25 11:46:06;;;;;;;;;;;;;;;;;;;;;
2021/09/25 11:49:40;;;;;;;1.95;1.77;;;33.10;39.90;;;;;;6137245;23;20380;-94
2021/09/25 11:52:28;;;;;;;3.38;2.72;;;33.40;41.60;;;;;;6132734;23;20355;-90
2021/09/25 12:00:25;;;;;;;5.65;1.90;;;34.40;36.70;;;;;;6061344;23;20033;-94
2021/09/25 12:08:21;;;;;;;;;;;;;;;;;;;;;
2021/09/25 12:12:33;;;;;;;2.65;2.10;;;36.50;33.50;;;;;;6133276;23;20026;-95
2021/09/25 12:15:25;;;;;;;2.17;1.88;;;37.20;33.30;;;;;;6156965;23;20147;-91
2021/09/25 12:21:56;;;;;;;2.20;2.03;;;34.90;34.10;;;;;;6130486;23;19917;-93
2021/09/25 12:29:43;;;;;;;;;;;;;;;;;;;;;
2021/09/25 12:33:35;;;;;;;;;;;;;;;;;;;;;
2021/09/25 12:36:53;;;;;;;2.47;1.67;;;34.60;31.80;;;;;;5908312;24;20025;-91
2021/09/25 12:40:15;;;;;;;5.68;1.83;;;34.40;32.70;;;;;;5926519;24;20417;-92
2021/09/25 12:43:12;;;;;;;1.63;1.52;;;34.20;33.70;;;;;;5889890;24;20030;-93
2021/09/25 12:46:48;;;;;;;3.45;1.80;;;34.60;32.90;;;;;;5957427;23;20091;-94
2021/09/25 12:58:03;;;;;;;2.92;1.52;;;34.50;32.90;;;;;;5833528;24;20071;-93
2021/09/25 13:01:29;;;;;;;2.17;1.58;;;33.60;34.70;;;;;;5814497;24;20035;-93
2021/09/25 13:09:19;;;;;;;2.40;1.92;;;33.00;36.50;;;;;;5878309;24;20022;-93
2021/09/25 13:12:36;;;;;;;3.13;2.15;;;33.70;36.90;;;;;;5906737;24;20058;-91
2021/09/25 13:15:34;;;;;;;2.47;2.00;;;33.70;37.00;;;;;;6103844;23;20078;-93
2021/09/25 13:22:18;;;;;;;3.25;2.33;;;32.50;39.20;;;;;;6041675;23;20098;-92
2021/09/25 13:25:09;;;;;;;2.63;2.13;;;32.50;40.20;;;;;;6054939;23;20413;-94
2021/09/25 13:29:00;;;;;;;;;;;;;;;;;;;;;
2021/09/25 13:32:25;;;;;;;2.47;1.98;;;33.90;37.00;;;;;;6144191;23;20030;-92
2021/09/25 13:40:14;;;;;;;2.70;2.35;;;36.70;35.00;;;;;;5991712;24;20155;-92
2021/09/25 13:50:43;;;;;;;3.17;2.22;;;36.10;35.20;;;;;;5938111;24;20020;-92
2021/09/25 14:10:09;;;;;;;2.50;2.00;;;36.00;34.60;;;;;;5877489;24;20032;-96
2021/09/25 14:13:01;;;;;;;2.50;2.00;;;35.30;36.00;;;;;;5875820;24;20025;-94
2021/09/25 14:16:41;;;;;;;5.57;2.78;;;35.70;36.80;;;;;;5930583;24;20021;-93
2021/09/25 14:19:34;;;;;;;2.58;2.05;;;36.00;37.20;;;;;;5923685;23;20048;-95
2021/09/25 14:22:35;;;;;;;4.88;2.28;;;36.70;34.50;;;;;;6025673;23;20060;-94
2021/09/25 14:29:42;;;;;;;3.80;2.38;;;35.60;35.40;;;;;;6024114;23;20032;-95
2021/09/25 14:32:36;;;;;;;3.60;2.38;;;35.20;36.70;;;;;;5998074;23;20111;-94
2021/09/25 14:43:51;;;;;;;3.50;2.70;;;31.40;42.90;;;;;;5992586;23;20023;-94
2021/09/25 14:51:27;;;;;;;2.80;2.30;;;31.70;43.50;;;;;;5962126;24;20044;-93
2021/09/25 14:54:30;;;;;;;4.03;2.30;;;31.90;42.50;;;;;;5928476;24;20036;-92
2021/09/25 14:57:18;;;;;;;3.80;2.15;;;32.80;42.40;;;;;;6055738;23;20054;-92
2021/09/25 15:00:25;;;;;;;;;;;;;;;;;;;;;
2021/09/25 15:03:45;;;;;;;3.28;1.90;;;33.90;41.90;;;;;;6151397;23;20069;-91
2021/09/25 15:07:18;;;;;;;2.25;1.92;;;34.30;39.80;;;;;;6156001;23;20021;-93
2021/09/25 15:10:05;;;;;;;3.33;1.88;;;34.50;39.80;;;;;;6158682;23;20389;-92
2021/09/25 15:12:54;;;;;;;3.13;2.15;;;35.00;38.40;;;;;;6155020;23;20025;-94
2021/09/25 15:15:45;;;;;;;3.42;1.90;;;35.00;39.00;;;;;;6154757;23;20040;-93
2021/09/25 15:22:45;;;;;;;7.13;2.42;;;34.60;38.70;;;;;;6038328;23;20024;-93
2021/09/25 15:25:48;;;;;;;4.65;2.03;;;34.00;40.10;;;;;;6105311;23;20472;-93
2021/09/25 15:28:46;;;;;;;;;;;;;;;;;;;;;
2021/09/25 15:31:37;;;;;;;2.25;2.03;;;33.10;40.90;;;;;;6124196;23;20120;-93
2021/09/25 15:34:31;;;;;;;6.18;2.40;;;32.20;43.00;;;;;;6124964;23;20034;-91
2021/09/25 15:37:19;;;;;;;4.25;2.60;;;31.10;44.90;;;;;;6208870;23;20114;-90
2021/09/25 15:40:07;;;;;;;4.65;2.88;;;29.80;47.60;;;;;;6245669;23;20107;-91
2021/09/25 15:42:57;;;;;;;6.35;2.50;;;28.50;50.70;;;;;;6245273;23;20091;-91
2021/09/25 15:45:47;;;;;;;5.25;2.58;;;27.70;53.00;;;;;;6246932;23;20031;-91
2021/09/25 15:48:35;;;;;;;5.75;3.30;;;27.00;54.30;;;;;;6247171;22;20105;-92
2021/09/25 15:51:24;;;;;;;3.63;2.70;;;26.50;55.70;;;;;;6225346;23;20038;-93
2021/09/25 15:54:11;;;;;;;6.40;2.80;;;26.10;56.70;;;;;;6204330;23;20036;-92
2021/09/25 15:56:58;;;;;;;4.07;2.92;;;25.90;57.10;;;;;;6250222;23;20027;-90
2021/09/25 15:59:47;;;;;;;5.25;3.10;;;25.70;57.90;;;;;;6245145;23;20032;-92
2021/09/25 16:02:34;;;;;;;4.47;2.83;;;25.60;58.50;;;;;;6245666;23;20078;-93
2021/09/25 16:05:21;;;;;;;4.50;3.13;;;25.40;59.00;;;;;;6245037;23;20027;-90
2021/09/25 16:08:10;;;;;;;4.70;3.45;;;25.20;60.40;;;;;;6246917;23;20042;-92
2021/09/25 16:10:59;;;;;;;3.55;2.78;;;25.00;62.60;;;;;;6251267;22;20103;-92
2021/09/25 16:13:49;;;;;;;3.25;2.90;;;24.80;65.30;;;;;;6224322;23;20082;-91
2021/09/25 16:16:37;;;;;;;4.28;3.45;;;24.40;67.60;;;;;;6246874;23;20210;-92
2021/09/25 16:19:24;;;;;;;5.25;3.00;;;24.20;69.70;;;;;;6247617;23;20027;-93
2021/09/25 16:22:14;;;;;;;5.93;2.83;;;23.90;72.50;;;;;;6224445;23;20304;-91
2021/09/25 16:25:02;;;;;;;8.32;2.97;;;23.60;72.80;;;;;;6244139;23;20118;-91
2021/09/25 16:27:49;;;;;;;5.00;3.22;;;23.30;74.40;;;;;;6244880;23;20048;-92
2021/09/25 16:30:36;;;;;;;4.75;3.20;;;23.10;74.10;;;;;;6245195;23;20390;-91
2021/09/25 16:33:25;;;;;;;5.15;2.97;;;22.90;72.80;;;;;;6244601;23;20558;-91
2021/09/25 16:36:14;;;;;;;3.95;3.22;;;22.80;75.90;;;;;;6244153;23;20089;-91
2021/09/25 16:39:04;;;;;;;4.43;3.42;;;22.70;75.80;;;;;;6225428;23;20063;-92
2021/09/25 16:41:57;;;;;;;4.20;3.28;;;22.60;74.80;;;;;;6246064;23;20441;-95
2021/09/25 16:44:44;;;;;;;4.75;4.00;;;22.50;76.90;;;;;;6246143;23;20051;-93
2021/09/25 16:47:34;;;;;;;4.13;3.58;;;22.40;76.50;;;;;;6247203;23;20134;-93
2021/09/25 16:50:24;;;;;;;4.22;3.75;;;22.30;78.10;;;;;;6226499;23;20032;-94
2021/09/25 16:53:11;;;;;;;5.97;3.80;;;22.20;78.50;;;;;;6247049;23;20137;-93
2021/09/25 16:56:00;;;;;;;7.70;4.22;;;22.00;79.90;;;;;;6247023;23;20056;-93
2021/09/25 16:58:48;;;;;;;5.97;3.95;;;21.80;81.70;;;;;;6248817;23;20082;-94
2021/09/25 17:01:36;;;;;;;9.23;4.22;;;21.70;82.30;;;;;;6253252;23;20372;-92
2021/09/25 17:04:27;;;;;;;6.15;4.45;;;21.60;82.30;;;;;;6249826;23;20482;-95
2021/09/25 17:07:17;;;;;;;4.75;3.90;;;21.50;81.80;;;;;;6254956;23;20345;-93
2021/09/25 17:10:06;;;;;;;6.53;4.47;;;21.40;84.20;;;;;;6256052;22;20028;-94
2021/09/25 17:12:56;;;;;;;7.72;4.38;;;21.30;84.50;;;;;;6255676;23;20024;-94
2021/09/25 17:15:44;;;;;;;7.43;4.70;;;21.10;86.20;;;;;;6254406;23;20063;-92
2021/09/25 17:18:34;;;;;;;7.90;4.60;;;21.00;86.20;;;;;;6250911;23;20457;-94
2021/09/25 17:21:21;;;;;;;9.02;4.50;;;20.80;88.00;;;;;;6253439;23;20028;-94
2021/09/25 17:24:13;;;;;;;5.85;4.63;;;20.70;89.00;;;;;;6255405;23;20152;-93
2021/09/25 17:27:03;;;;;;;5.75;4.60;;;20.60;89.30;;;;;;6229402;23;20051;-94
2021/09/25 17:29:51;;;;;;;8.52;4.45;;;20.50;90.30;;;;;;6254730;23;20088;-93
2021/09/25 17:32:39;;;;;;;5.97;4.63;;;20.50;90.50;;;;;;6260322;23;20024;-92
2021/09/25 17:35:29;;;;;;;9.35;5.03;;;20.40;90.90;;;;;;6256803;22;20027;-92
2021/09/25 17:38:16;;;;;;;7.53;4.90;;;20.30;91.40;;;;;;6260274;22;20099;-93
2021/09/25 17:41:03;;;;;;;6.32;4.75;;;20.30;91.70;;;;;;6267872;22;20054;-94
2021/09/25 17:43:51;;;;;;;7.25;4.97;;;20.20;92.70;;;;;;6264868;23;20067;-92
2021/09/25 17:46:38;;;;;;;8.60;5.32;;;20.10;93.90;;;;;;6219435;23;20051;-92
2021/09/25 17:49:25;;;;;;;8.45;5.45;;;20.00;95.20;;;;;;6259273;23;20442;-93
2021/09/25 17:52:13;;;;;;;12.63;8.07;;;19.80;96.60;;;;;;6254296;23;20036;-92
2021/09/25 17:55:00;;;;;;;8.13;5.22;;;19.80;96.40;;;;;;6256083;23;20028;-93
2021/09/25 17:57:48;;;;;;;6.78;5.72;;;19.70;99.60;;;;;;6236656;23;20093;-93
2021/09/25 18:00:38;;;;;;;8.32;5.75;;;19.60;99.90;;;;;;6252523;23;20047;-92
2021/09/25 18:03:25;;;;;;;7.20;5.30;;;19.50;99.90;;;;;;6258350;22;20024;-94
2021/09/25 18:06:15;;;;;;;8.40;5.47;;;19.40;99.90;;;;;;6259693;23;20059;-93
2021/09/25 18:09:05;;;;;;;9.27;6.28;;;19.40;99.90;;;;;;6218727;23;20115;-91
2021/09/25 18:11:55;;;;;;;9.80;5.40;;;19.30;99.90;;;;;;6261081;23;20032;-92
2021/09/25 18:14:47;;;;;;;;;;;19.20;99.90;;;;;;6260776;23;20028;-92
2021/09/25 18:17:34;;;;;;;7.10;5.38;;;19.10;99.90;;;;;;6255178;23;19916;-93
2021/09/25 18:20:21;;;;;;;9.20;6.25;;;19.00;99.90;;;;;;6234125;23;20028;-92
2021/09/25 18:23:11;;;;;;;8.10;6.00;;;19.00;99.90;;;;;;6256422;22;20030;-92
2021/09/25 18:26:00;;;;;;;10.82;5.72;;;18.90;99.90;;;;;;6212423;23;20051;-93
2021/09/25 18:28:48;;;;;;;8.07;5.40;;;18.80;99.90;;;;;;6254607;23;20050;-92
2021/09/25 18:31:37;;;;;;;7.15;6.03;;;18.80;99.90;;;;;;6234563;23;20046;-93
2021/09/25 18:34:25;;;;;;;8.60;5.95;;;18.80;99.90;;;;;;6230175;23;20081;-93
2021/09/25 18:37:13;;;;;;;10.18;6.80;;;18.80;99.90;;;;;;6234135;23;20028;-91
2021/09/25 18:40:00;;;;;;;11.30;7.50;;;18.70;99.90;;;;;;6234399;23;20025;-93
2021/09/25 18:42:49;;;;;;;9.75;6.00;;;18.70;99.90;;;;;;6232342;23;20411;-94
2021/09/25 18:45:38;;;;;;;7.07;5.30;;;18.70;99.90;;;;;;6231933;23;20024;-93
2021/09/25 18:48:28;;;;;;;7.07;6.25;;;18.80;99.90;;;;;;6219619;23;20054;-92
2021/09/25 18:51:18;;;;;;;11.30;5.28;;;18.80;99.90;;;;;;6266991;23;20028;-96
2021/09/25 19:04:31;;;;;;;9.00;6.05;;;19.10;99.90;;;;;;6077474;23;20055;-94
2021/09/25 19:12:23;;;;;;;;;;;;;;;;;;;;;
2021/09/25 19:16:02;;;;;;;;;;;;;;;;;;;;;
2021/09/25 19:31:16;;;;;;;10.05;7.57;;;18.20;99.90;;;;;;5952605;24;20017;-94
2021/09/25 19:39:22;;;;;;;;;;;;;;;;;;;;;
2021/09/25 19:59:53;;;;;;;;;;;;;;;;;;;;;
2021/09/25 20:03:35;;;;;;;;;;;;;;;;;;;;;
2021/09/25 20:36:07;;;;;;;;;;;;;;;;;;;;;
2021/09/25 20:39:28;;;;;;;15.00;11.15;;;17.20;99.90;;;;;;6260895;22;20246;-93
2021/09/25 20:55:11;;;;;;;16.80;11.25;;;17.30;99.90;;;;;;5944237;24;20417;-93
2021/09/25 20:59:11;;;;;;;;;;;;;;;;;;;;;
2021/09/25 21:06:28;;;;;;;;;;;;;;;;;;;;;
2021/09/25 21:09:58;;;;;;;;;;;;;;;;;;;;;
2021/09/25 21:17:17;;;;;;;;;;;;;;;;;;;;;
2021/09/25 21:20:52;;;;;;;;;;;;;;;;;;;;;
2021/09/25 21:24:13;;;;;;;15.50;11.63;;;16.70;99.90;;;;;;5895156;23;20033;-94
2021/09/25 21:31:47;;;;;;;;;;;;;;;;;;;;;
2021/09/25 21:35:05;;;;;;;;;;;;;;;;;;;;;
2021/09/25 21:37:59;;;;;;;15.70;9.20;;;16.60;99.90;;;;;;5944915;24;20032;-94
2021/09/25 21:46:24;;;;;;;;;;;;;;;;;;;;;
2021/09/25 22:01:22;;;;;;;13.68;9.60;;;16.40;99.90;;;;;;5776100;24;20043;-93
2021/09/25 22:04:08;;;;;;;12.93;10.43;;;16.40;99.90;;;;;;5786420;24;20014;-91
2021/09/25 22:07:12;;;;;;;18.45;11.10;;;16.50;99.90;;;;;;5926775;23;20319;-92
2021/09/25 22:10:08;;;;;;;14.85;11.55;;;16.50;99.90;;;;;;6153673;23;20029;-91
2021/09/25 22:12:55;;;;;;;;;;;16.50;99.90;;;;;;6153540;23;20413;-91
2021/09/25 22:15:42;;;;;;;13.48;10.35;;;16.50;99.90;;;;;;6133503;23;19960;-91
2021/09/25 22:18:30;;;;;;;11.93;9.90;;;16.50;99.90;;;;;;6153411;23;20057;-92
2021/09/25 22:21:19;;;;;;;12.15;9.13;;;16.50;99.90;;;;;;6155053;23;20072;-92
2021/09/25 22:24:07;;;;;;;15.68;10.02;;;16.40;99.90;;;;;;6134019;23;20033;-91
2021/09/25 22:26:54;;;;;;;11.82;10.15;;;16.40;99.90;;;;;;6208144;22;20024;-92
2021/09/25 22:29:41;;;;;;;13.50;9.85;;;16.40;99.90;;;;;;6274754;22;20073;-92
2021/09/25 22:32:31;;;;;;;11.68;10.02;;;16.30;99.90;;;;;;6252324;22;20024;-92
2021/09/25 22:35:26;;;;;;;12.02;10.07;;;16.40;99.90;;;;;;6233822;22;20035;-90
2021/09/25 22:38:19;;;;;;;14.00;10.00;;;16.40;99.90;;;;;;6275015;22;20028;-91
2021/09/25 22:41:11;;;;;;;16.00;9.85;;;16.40;99.90;;;;;;6275218;22;20024;-92
2021/09/25 22:43:58;;;;;;;14.35;9.82;;;16.30;99.90;;;;;;6252381;22;20423;-91
2021/09/25 22:46:45;;;;;;;10.70;9.40;;;16.20;99.90;;;;;;6250052;22;20397;-90
2021/09/25 22:49:34;;;;;;;13.05;9.85;;;16.10;99.90;;;;;;6251712;22;20093;-90
2021/09/25 22:52:21;;;;;;;12.98;9.70;;;16.10;99.90;;;;;;6272379;22;20130;-90
2021/09/25 22:55:13;;;;;;;11.07;8.90;;;16.20;99.90;;;;;;6252038;22;20028;-91
2021/09/25 22:58:00;;;;;;;15.10;9.15;;;16.30;99.90;;;;;;6251519;22;20027;-91
2021/09/25 23:00:50;;;;;;;13.07;9.10;;;16.60;99.90;;;;;;6275341;22;20024;-93
2021/09/25 23:03:38;;;;;;;11.05;8.77;;;16.80;99.90;;;;;;6277225;22;20389;-92
2021/09/25 23:06:27;;;;;;;10.23;8.23;;;17.00;99.90;;;;;;6255283;22;20458;-90
2021/09/25 23:09:15;;;;;;;10.50;8.48;;;17.20;99.90;;;;;;6256139;22;20031;-93
2021/09/25 23:12:07;;;;;;;13.07;8.65;;;17.30;99.90;;;;;;6276705;22;20023;-94
2021/09/25 23:14:56;;;;;;;11.93;8.00;;;17.40;99.90;;;;;;6257677;22;20034;-92
2021/09/25 23:17:47;;;;;;;9.75;7.80;;;17.60;99.90;;;;;;6278199;22;20028;-92
2021/09/25 23:20:34;;;;;;;12.30;7.63;;;17.70;99.90;;;;;;6236286;22;20027;-93
2021/09/25 23:23:23;;;;;;;10.30;7.68;;;17.80;99.90;;;;;;6255118;22;20166;-93
2021/09/25 23:26:10;;;;;;;11.55;8.30;;;17.80;99.90;;;;;;6256332;22;20019;-93
2021/09/25 23:28:59;;;;;;;8.52;7.63;;;17.70;99.90;;;;;;6234442;22;20414;-94
2021/09/25 23:31:48;;;;;;;10.25;7.70;;;17.60;99.90;;;;;;6234718;22;20173;-93
2021/09/25 23:34:37;;;;;;;12.48;8.20;;;17.60;99.90;;;;;;6252656;22;20093;-94
2021/09/25 23:37:27;;;;;;;10.30;7.57;;;17.50;99.90;;;;;;6213778;22;20071;-94
2021/09/25 23:40:17;;;;;;;12.38;8.45;;;17.50;99.90;;;;;;6235634;22;20457;-95
2021/09/25 23:43:05;;;;;;;14.45;8.98;;;17.40;99.90;;;;;;6273119;22;20031;-91
2021/09/25 23:45:53;;;;;;;13.13;9.68;;;17.30;99.90;;;;;;6273005;22;20023;-91
2021/09/25 23:48:41;;;;;;;12.07;8.60;;;17.30;99.90;;;;;;6255291;22;20062;-94
2021/09/25 23:51:29;;;;;;;10.48;8.10;;;17.20;99.90;;;;;;6277719;22;20027;-91
2021/09/25 23:54:19;;;;;;;13.00;8.05;;;17.30;99.90;;;;;;6255545;22;20103;-93
2021/09/25 23:57:08;;;;;;;10.57;7.90;;;17.40;99.90;;;;;;6254527;22;20055;-94
